createdAt,value
2023-01-17T00:00:08.104Z,3.83
2023-01-17T00:02:35.872Z,3.77
2023-01-17T00:05:21.549Z,3.27
2023-01-17T00:08:06.873Z,3.47
2023-01-17T00:10:35.218Z,3.83
2023-01-17T00:13:04.975Z,3.43
2023-01-17T00:15:33.184Z,3.67
2023-01-17T00:18:01.094Z,4.33
2023-01-17T00:20:48.344Z,4.70
2023-01-17T00:23:36.193Z,4.10
2023-01-17T00:26:05.216Z,4.80
2023-01-17T00:28:35.945Z,3.97
2023-01-17T00:31:03.961Z,3.90
2023-01-17T00:33:31.055Z,4.90
2023-01-17T00:35:59.256Z,3.77
2023-01-17T00:38:27.688Z,4.00
2023-01-17T00:40:54.543Z,4.03
2023-01-17T00:43:41.787Z,4.17
2023-01-17T00:46:28.253Z,3.43
2023-01-17T00:49:14.163Z,3.83
2023-01-17T00:51:59.246Z,3.20
2023-01-17T00:54:44.696Z,4.20
2023-01-17T00:57:29.948Z,3.77
2023-01-17T01:00:15.673Z,3.37
2023-01-17T01:03:02.292Z,3.83
2023-01-17T01:05:47.786Z,4.60
2023-01-17T01:08:39.433Z,3.40
2023-01-17T01:11:26.640Z,3.47
2023-01-17T01:14:12.121Z,4.07
2023-01-17T01:16:57.637Z,4.27
2023-01-17T01:19:44.504Z,4.03
2023-01-17T01:22:30.061Z,3.33
2023-01-17T01:25:15.188Z,3.30
2023-01-17T01:28:00.546Z,3.73
2023-01-17T01:30:45.695Z,4.00
2023-01-17T01:33:20.593Z,3.50
2023-01-17T01:35:54.691Z,3.20
2023-01-17T01:38:24.392Z,2.97
2023-01-17T01:40:53.936Z,3.05
2023-01-17T01:43:23.324Z,3.00
2023-01-17T01:45:55.154Z,4.00
2023-01-17T01:48:37.416Z,3.47
2023-01-17T01:51:09.943Z,3.97
2023-01-17T01:53:41.804Z,3.17
2023-01-17T01:56:13.527Z,2.87
2023-01-17T01:58:43.009Z,2.87
2023-01-17T02:01:11.365Z,3.03
2023-01-17T02:03:42.035Z,2.90
2023-01-17T02:06:20.319Z,2.87
2023-01-17T02:08:49.457Z,2.90
2023-01-17T02:11:17.160Z,2.60
2023-01-17T02:13:44.887Z,2.60
2023-01-17T02:16:23.579Z,3.10
2023-01-17T02:19:00.239Z,3.30
2023-01-17T02:21:33.503Z,2.77
2023-01-17T02:24:41.245Z,2.50
2023-01-17T02:27:17.476Z,3.00
2023-01-17T02:30:14.589Z,2.60
2023-01-17T02:32:52.381Z,2.70
2023-01-17T02:35:29.098Z,2.67
2023-01-17T02:38:04.123Z,2.83
2023-01-17T02:40:39.414Z,2.63
2023-01-17T02:43:10.670Z,2.50
2023-01-17T02:45:39.010Z,2.70
2023-01-17T02:48:11.679Z,2.97
2023-01-17T02:50:52.472Z,2.63
2023-01-17T02:53:33.069Z,3.00
2023-01-17T02:56:07.132Z,3.00
2023-01-17T02:58:47.681Z,3.40
2023-01-17T03:01:27.818Z,3.07
2023-01-17T03:04:02.909Z,2.75
2023-01-17T03:06:35.974Z,2.97
2023-01-17T03:09:05.393Z,2.80
2023-01-17T03:14:02.005Z,2.47
2023-01-17T03:16:34.016Z,3.03
2023-01-17T03:19:03.724Z,3.27
2023-01-17T03:21:31.829Z,3.05
2023-01-17T03:23:59.663Z,2.80
2023-01-17T03:26:27.440Z,2.80
2023-01-17T03:28:55.372Z,3.37
2023-01-17T03:31:23.269Z,3.60
2023-01-17T03:33:51.107Z,2.90
2023-01-17T03:36:20.499Z,3.10
2023-01-17T03:38:48.397Z,2.97
2023-01-17T03:41:16.142Z,3.00
2023-01-17T03:43:44.019Z,2.87
2023-01-17T03:46:20.561Z,2.63
2023-01-17T03:48:48.632Z,3.60
2023-01-17T03:51:16.863Z,3.10
2023-01-17T03:53:47.093Z,3.00
2023-01-17T03:56:15.715Z,3.30
2023-01-17T03:58:43.853Z,2.83
2023-01-17T04:01:12.323Z,3.53
2023-01-17T04:03:40.415Z,3.50
2023-01-17T04:06:08.572Z,3.10
2023-01-17T04:08:36.605Z,3.70
2023-01-17T04:11:06.022Z,3.10
2023-01-17T04:13:34.254Z,3.42
2023-01-17T04:16:02.142Z,3.40
2023-01-17T04:18:30.390Z,3.40
2023-01-17T04:20:58.249Z,3.57
2023-01-17T04:23:26.113Z,3.07
2023-01-17T04:25:53.818Z,3.40
2023-01-17T04:28:23.012Z,3.20
2023-01-17T04:30:50.853Z,3.40
2023-01-17T04:33:18.707Z,3.27
2023-01-17T04:35:46.547Z,3.60
2023-01-17T04:38:14.325Z,3.40
2023-01-17T04:40:42.063Z,3.07
2023-01-17T04:43:09.882Z,3.00
2023-01-17T04:45:39.455Z,3.53
2023-01-17T04:48:07.942Z,2.50
2023-01-17T04:50:35.914Z,2.87
2023-01-17T04:53:03.801Z,2.50
2023-01-17T04:55:31.555Z,2.80
2023-01-17T04:57:59.381Z,2.83
2023-01-17T05:00:27.292Z,2.50
2023-01-17T05:02:56.515Z,2.30
2023-01-17T05:05:24.414Z,3.23
2023-01-17T05:07:55.912Z,3.07
2023-01-17T05:10:24.080Z,2.80
2023-01-17T05:12:56.056Z,2.60
2023-01-17T05:15:24.813Z,2.70
2023-01-17T05:17:53.641Z,2.70
2023-01-17T05:20:24.897Z,2.97
2023-01-17T05:22:55.608Z,2.83
2023-01-17T05:25:24.140Z,2.40
2023-01-17T05:27:51.933Z,2.70
2023-01-17T05:30:21.087Z,2.40
2023-01-17T05:32:50.442Z,2.27
2023-01-17T05:35:19.728Z,2.00
2023-01-17T05:37:50.121Z,2.33
2023-01-17T05:42:47.274Z,2.40
2023-01-17T05:45:17.134Z,2.50
2023-01-17T05:47:45.386Z,3.47
2023-01-17T05:50:14.029Z,2.30
2023-01-17T05:52:42.782Z,2.43
2023-01-17T05:55:12.227Z,2.60
2023-01-17T05:57:39.947Z,2.73
2023-01-17T06:00:09.839Z,2.47
2023-01-17T06:02:37.712Z,2.95
2023-01-17T06:05:06.256Z,2.67
2023-01-17T06:07:34.391Z,2.60
2023-01-17T06:10:02.312Z,2.77
2023-01-17T06:12:32.269Z,2.73
2023-01-17T06:15:00.196Z,2.47
2023-01-17T06:17:28.112Z,2.33
2023-01-17T06:19:55.831Z,2.60
2023-01-17T06:22:23.680Z,2.87
2023-01-17T06:24:51.558Z,2.63
2023-01-17T06:27:19.411Z,2.50
2023-01-17T06:29:48.687Z,3.23
2023-01-17T06:32:16.651Z,2.83
2023-01-17T06:34:44.461Z,2.97
2023-01-17T06:37:12.316Z,2.70
2023-01-17T06:39:40.205Z,2.80
2023-01-17T06:42:07.923Z,3.10
2023-01-17T06:44:35.769Z,2.63
2023-01-17T06:47:05.026Z,3.03
2023-01-17T06:49:32.762Z,2.70
2023-01-17T06:52:00.574Z,2.50
2023-01-17T06:54:28.354Z,2.40
2023-01-17T06:56:56.092Z,2.53
2023-01-17T06:59:23.994Z,2.93
2023-01-17T07:01:52.443Z,2.70
2023-01-17T07:04:21.595Z,2.30
2023-01-17T07:06:49.437Z,3.17
2023-01-17T07:09:17.465Z,3.40
2023-01-17T07:11:45.648Z,3.00
2023-01-17T07:14:14.837Z,2.80
2023-01-17T07:16:45.336Z,2.60
2023-01-17T07:21:42.542Z,3.00
2023-01-17T07:24:10.734Z,2.90
2023-01-17T07:26:40.208Z,3.60
2023-01-17T07:29:08.320Z,2.80
2023-01-17T07:31:38.168Z,3.30
2023-01-17T07:34:05.888Z,3.17
2023-01-17T07:36:34.050Z,3.50
2023-01-17T07:39:06.150Z,3.90
2023-01-17T07:41:34.722Z,3.27
2023-01-17T07:44:02.618Z,3.53
2023-01-17T07:46:30.353Z,3.20
2023-01-17T07:48:58.063Z,3.43
2023-01-17T07:51:25.947Z,3.20
2023-01-17T07:53:53.682Z,3.83
2023-01-17T07:56:22.805Z,3.70
2023-01-17T07:58:50.743Z,3.80
2023-01-17T08:01:18.610Z,3.77
2023-01-17T08:03:46.580Z,3.47
2023-01-17T08:06:18.825Z,3.60
2023-01-17T08:08:46.983Z,3.43
2023-01-17T08:11:15.200Z,3.37
2023-01-17T08:13:44.432Z,3.03
2023-01-17T08:16:12.699Z,3.20
2023-01-17T08:18:41.060Z,3.40
2023-01-17T08:21:14.797Z,3.13
2023-01-17T08:23:42.630Z,3.13
2023-01-17T08:26:10.377Z,3.30
2023-01-17T08:28:38.232Z,3.47
2023-01-17T08:31:11.382Z,2.63
2023-01-17T08:33:39.235Z,2.90
2023-01-17T08:36:07.335Z,3.00
2023-01-17T08:38:35.224Z,3.53
2023-01-17T08:41:03.043Z,3.27
2023-01-17T08:43:30.790Z,3.13
2023-01-17T08:45:58.656Z,3.30
2023-01-17T08:48:27.854Z,3.40
2023-01-17T08:50:55.685Z,3.33
2023-01-17T08:53:23.533Z,3.60
2023-01-17T08:55:58.935Z,3.70
2023-01-17T08:58:29.779Z,3.20
2023-01-17T09:01:01.805Z,3.90
2023-01-17T09:03:31.215Z,4.00
2023-01-17T09:06:03.753Z,3.53
2023-01-17T09:08:31.628Z,3.60
2023-01-17T09:10:59.549Z,3.87
2023-01-17T09:13:27.439Z,3.93
2023-01-17T09:15:57.541Z,3.90
2023-01-17T09:18:25.707Z,4.32
2023-01-17T09:20:55.649Z,4.10
2023-01-17T09:23:24.033Z,4.70
2023-01-17T09:25:55.218Z,4.40
2023-01-17T09:28:23.149Z,5.00
2023-01-17T09:30:51.059Z,5.33
2023-01-17T09:33:19.369Z,5.27
2023-01-17T09:35:47.673Z,5.80
2023-01-17T09:38:17.854Z,6.37
2023-01-17T09:40:48.622Z,6.00
2023-01-17T09:43:24.283Z,6.10
2023-01-17T09:45:52.893Z,5.37
2023-01-17T09:48:29.478Z,6.03
2023-01-17T09:51:01.071Z,5.70
2023-01-17T09:53:35.821Z,5.83
2023-01-17T09:56:11.972Z,5.70
2023-01-17T09:58:47.470Z,5.37
2023-01-17T10:01:26.598Z,4.73
2023-01-17T10:04:11.823Z,4.90
2023-01-17T10:06:59.569Z,5.07
2023-01-17T10:09:46.890Z,5.00
2023-01-17T10:12:26.031Z,4.60
2023-01-17T10:15:07.204Z,5.60
2023-01-17T10:17:44.896Z,5.13
2023-01-17T10:20:34.028Z,5.33
2023-01-17T10:23:22.140Z,5.03
2023-01-17T10:25:52.529Z,5.20
2023-01-17T10:30:50.767Z,4.67
2023-01-17T10:33:22.503Z,4.90
2023-01-17T10:35:57.919Z,4.80
2023-01-17T10:38:32.039Z,4.90
2023-01-17T10:41:09.322Z,4.40
2023-01-17T10:43:45.524Z,4.57
2023-01-17T10:46:18.144Z,3.93
2023-01-17T10:48:49.588Z,4.60
2023-01-17T10:51:35.665Z,4.40
2023-01-17T10:54:16.200Z,4.43
2023-01-17T10:59:29.694Z,4.13
2023-01-17T11:01:57.885Z,3.67
2023-01-17T11:04:36.581Z,3.80
2023-01-17T11:07:16.288Z,4.27
2023-01-17T11:09:46.986Z,4.65
2023-01-17T11:12:40.203Z,4.63
2023-01-17T11:15:25.820Z,4.47
2023-01-17T11:18:03.494Z,5.03
2023-01-17T11:20:35.058Z,5.00
2023-01-17T11:23:08.254Z,5.23
2023-01-17T11:25:39.020Z,4.90
2023-01-17T11:28:20.780Z,5.97
2023-01-17T11:30:54.615Z,5.77
2023-01-17T11:33:56.508Z,5.00
2023-01-17T11:36:27.351Z,5.77
2023-01-17T11:38:57.747Z,5.23
2023-01-17T11:43:56.416Z,5.03
2023-01-17T11:46:25.141Z,4.77
2023-01-17T11:48:56.196Z,4.50
2023-01-17T11:51:28.223Z,4.10
2023-01-17T11:54:09.215Z,4.30
2023-01-17T11:56:38.461Z,4.70
2023-01-17T11:59:26.281Z,4.40
2023-01-17T12:02:21.526Z,4.00
2023-01-17T12:05:00.119Z,3.93
2023-01-17T12:07:36.750Z,3.93
2023-01-17T12:10:14.814Z,3.90
2023-01-17T12:13:12.518Z,4.00
2023-01-17T12:15:56.756Z,3.67
2023-01-17T12:18:35.845Z,3.60
2023-01-17T12:21:16.808Z,3.73
2023-01-17T12:24:01.817Z,3.60
2023-01-17T12:26:38.345Z,3.47
2023-01-17T12:29:44.819Z,3.67
2023-01-17T12:32:30.140Z,3.30
2023-01-17T12:35:01.981Z,3.50
2023-01-17T12:37:37.144Z,3.53
2023-01-17T12:40:15.800Z,3.33
2023-01-17T12:42:48.869Z,3.60
2023-01-17T12:45:22.711Z,3.40
2023-01-17T12:47:59.022Z,2.93
2023-01-17T12:50:33.406Z,3.23
2023-01-17T12:53:06.352Z,3.50
2023-01-17T12:55:41.569Z,3.37
2023-01-17T12:58:17.377Z,3.30
2023-01-17T13:00:48.313Z,3.70
2023-01-17T13:03:27.308Z,3.40
2023-01-17T13:05:58.625Z,3.40
2023-01-17T13:08:31.017Z,2.97
2023-01-17T13:11:05.037Z,2.70
2023-01-17T13:13:35.675Z,2.70
2023-01-17T13:16:08.565Z,2.90
2023-01-17T13:18:44.040Z,2.60
2023-01-17T13:21:30.655Z,2.70
2023-01-17T13:24:20.422Z,2.03
2023-01-17T13:27:32.084Z,2.50
2023-01-17T13:30:24.225Z,1.97
2023-01-17T13:33:07.260Z,2.23
2023-01-17T13:35:43.724Z,2.03
2023-01-17T13:38:31.744Z,2.50
2023-01-17T13:41:03.853Z,2.00
2023-01-17T13:43:36.721Z,2.43
2023-01-17T13:46:05.466Z,1.90
2023-01-17T13:48:34.646Z,1.70
2023-01-17T13:51:06.202Z,1.80
2023-01-17T13:53:59.058Z,2.00
2023-01-17T13:56:37.111Z,1.70
2023-01-17T13:59:35.911Z,1.63
2023-01-17T14:02:03.769Z,1.93
2023-01-17T14:05:10.242Z,1.40
2023-01-17T14:07:45.977Z,1.50
2023-01-17T14:10:27.782Z,1.40
2023-01-17T14:12:57.488Z,1.50
2023-01-17T14:15:27.812Z,1.30
2023-01-17T14:17:58.709Z,1.50
2023-01-17T14:20:46.806Z,1.50
2023-01-17T14:23:40.476Z,1.43
2023-01-17T14:26:24.548Z,1.13
2023-01-17T14:28:53.317Z,1.80
2023-01-17T14:31:24.088Z,1.40
2023-01-17T14:33:51.917Z,1.63
2023-01-17T14:36:26.917Z,1.60
2023-01-17T14:38:56.279Z,1.30
2023-01-17T14:41:27.268Z,1.50
2023-01-17T14:43:56.525Z,1.60
2023-01-17T14:46:28.064Z,1.80
2023-01-17T14:49:02.434Z,1.77
2023-01-17T14:51:35.000Z,1.43
2023-01-17T14:54:16.925Z,1.50
2023-01-17T14:56:44.771Z,1.83
2023-01-17T14:59:17.781Z,2.00
2023-01-17T15:02:06.351Z,1.80
2023-01-17T15:04:39.644Z,1.83
2023-01-17T15:07:08.689Z,1.83
2023-01-17T15:09:39.069Z,1.97
2023-01-17T15:17:11.213Z,2.13
2023-01-17T15:19:43.552Z,1.80
2023-01-17T15:22:12.395Z,2.20
2023-01-17T15:24:44.693Z,1.93
2023-01-17T15:27:15.061Z,2.33
2023-01-17T15:32:19.537Z,2.03
2023-01-17T15:34:50.006Z,2.10
2023-01-17T15:40:04.630Z,2.37
2023-01-17T15:42:35.415Z,2.03
2023-01-17T15:45:05.747Z,3.17
2023-01-17T15:47:35.943Z,2.80
2023-01-17T15:50:30.205Z,3.28
2023-01-17T15:53:00.599Z,2.10
2023-01-17T15:55:34.428Z,2.78
2023-01-17T15:58:03.390Z,2.50
2023-01-17T16:00:38.372Z,4.10
2023-01-17T16:03:23.127Z,2.27
2023-01-17T16:05:51.737Z,2.30
2023-01-17T16:08:39.725Z,2.40
2023-01-17T16:11:12.500Z,2.50
2023-01-17T16:13:43.418Z,2.80
2023-01-17T16:16:13.364Z,2.80
2023-01-17T16:18:41.630Z,2.45
2023-01-17T16:21:19.737Z,2.40
2023-01-17T16:23:48.014Z,3.00
2023-01-17T16:26:17.831Z,2.50
2023-01-17T16:28:45.937Z,2.35
2023-01-17T16:31:13.678Z,2.40
2023-01-17T16:33:42.828Z,2.40
2023-01-17T16:36:16.534Z,2.50
2023-01-17T16:38:44.821Z,2.00
2023-01-17T16:41:12.708Z,2.87
2023-01-17T16:43:41.919Z,2.57
2023-01-17T16:46:12.621Z,2.20
2023-01-17T16:48:40.409Z,2.57
2023-01-17T16:51:09.227Z,2.13
2023-01-17T16:53:37.730Z,2.53
2023-01-17T16:56:13.769Z,2.53
2023-01-17T16:58:43.678Z,2.40
2023-01-17T17:01:12.330Z,2.40
2023-01-17T17:03:40.209Z,2.50
2023-01-17T17:06:08.757Z,2.43
2023-01-17T17:08:37.836Z,2.40
2023-01-17T17:11:14.532Z,2.20
2023-01-17T17:13:44.988Z,2.43
2023-01-17T17:16:15.934Z,2.27
2023-01-17T17:18:44.995Z,3.57
2023-01-17T17:21:13.860Z,5.27
2023-01-17T17:23:41.816Z,3.20
2023-01-17T17:26:09.802Z,2.70
2023-01-17T17:28:37.588Z,2.20
2023-01-17T17:31:10.642Z,2.70
2023-01-17T17:33:38.758Z,2.57
2023-01-17T17:36:10.108Z,2.33
2023-01-17T17:38:38.625Z,2.80
2023-01-17T17:41:09.407Z,2.93
2023-01-17T17:43:38.892Z,2.70
2023-01-17T17:46:09.013Z,3.88
2023-01-17T17:48:37.349Z,2.92
2023-01-17T17:51:06.373Z,2.73
2023-01-17T17:53:34.203Z,2.90
2023-01-17T17:56:06.460Z,3.17
2023-01-17T17:58:36.123Z,3.40
2023-01-17T18:01:05.642Z,3.63
2023-01-17T18:03:34.959Z,3.20
2023-01-17T18:06:05.236Z,3.17
2023-01-17T18:08:33.835Z,3.35
2023-01-17T18:11:03.045Z,3.73
2023-01-17T18:13:31.728Z,4.30
2023-01-17T18:16:05.644Z,4.17
2023-01-17T18:18:35.359Z,3.80
2023-01-17T18:21:08.759Z,3.88
2023-01-17T18:23:39.538Z,3.90
2023-01-17T18:26:08.185Z,3.93
2023-01-17T18:28:35.917Z,4.10
2023-01-17T18:31:07.799Z,3.93
2023-01-17T18:33:38.749Z,4.23
2023-01-17T18:36:08.254Z,4.50
2023-01-17T18:38:39.602Z,5.03
2023-01-17T18:41:08.847Z,5.00
2023-01-17T18:43:36.959Z,4.73
2023-01-17T18:46:05.602Z,5.07
2023-01-17T18:48:33.875Z,5.27
2023-01-17T18:51:05.748Z,4.90
2023-01-17T18:53:35.664Z,6.10
2023-01-17T18:56:06.089Z,6.00
2023-01-17T19:01:09.660Z,5.75
2023-01-17T19:03:38.160Z,6.00
2023-01-17T19:06:08.621Z,6.07
2023-01-17T19:11:05.415Z,6.67
2023-01-17T19:13:34.478Z,6.87
2023-01-17T19:16:04.233Z,6.90
2023-01-17T19:18:32.508Z,6.85
2023-01-17T19:21:05.707Z,8.47
2023-01-17T19:23:35.667Z,7.87
2023-01-17T19:26:03.799Z,7.82
2023-01-17T19:28:33.626Z,8.17
2023-01-17T19:31:03.629Z,8.57
2023-01-17T19:33:31.491Z,8.90
2023-01-17T19:36:01.136Z,9.33
2023-01-17T19:38:28.982Z,10.05
2023-01-17T19:40:58.240Z,9.23
2023-01-17T19:43:26.080Z,9.27
2023-01-17T19:45:58.980Z,9.40
2023-01-17T19:48:27.827Z,9.40
2023-01-17T19:50:55.765Z,10.73
2023-01-17T19:53:24.435Z,10.43
2023-01-17T19:55:52.380Z,10.67
2023-01-17T19:58:21.433Z,10.97
2023-01-17T20:00:49.260Z,11.73
2023-01-17T20:03:17.102Z,11.07
2023-01-17T20:05:46.101Z,10.57
2023-01-17T20:08:14.240Z,10.67
2023-01-17T20:10:42.238Z,11.37
2023-01-17T20:13:09.986Z,11.83
2023-01-17T20:15:39.118Z,11.57
2023-01-17T20:18:07.115Z,11.67
2023-01-17T20:20:39.590Z,13.23
2023-01-17T20:23:14.057Z,11.97
2023-01-17T20:25:41.959Z,11.73
2023-01-17T20:28:09.777Z,12.67
2023-01-17T20:30:39.037Z,12.77
2023-01-17T20:33:09.110Z,13.30
2023-01-17T20:35:36.885Z,13.43
2023-01-17T20:38:04.843Z,14.53
2023-01-17T20:40:32.713Z,14.30
2023-01-17T20:43:00.432Z,15.60
2023-01-17T20:45:28.861Z,13.93
2023-01-17T20:47:58.497Z,14.37
2023-01-17T20:50:26.634Z,14.70
2023-01-17T20:52:54.520Z,14.43
2023-01-17T20:55:24.336Z,14.00
2023-01-17T20:57:52.954Z,13.38
2023-01-17T21:00:21.597Z,13.27
2023-01-17T21:02:50.054Z,12.93
2023-01-17T21:05:19.185Z,13.50
2023-01-17T21:07:47.102Z,12.60
2023-01-17T21:10:15.047Z,12.20
2023-01-17T21:12:42.951Z,11.73
2023-01-17T21:15:20.142Z,12.53
2023-01-17T21:17:47.929Z,12.20
2023-01-17T21:20:16.516Z,12.23
2023-01-17T21:22:45.732Z,13.50
2023-01-17T21:25:13.615Z,12.50
2023-01-17T21:27:41.337Z,14.67
2023-01-17T21:30:10.714Z,13.13
2023-01-17T21:32:38.538Z,14.77
2023-01-17T21:35:07.736Z,14.90
2023-01-17T21:37:36.027Z,16.77
2023-01-17T21:40:05.899Z,15.63
2023-01-17T21:42:33.696Z,18.13
2023-01-17T21:45:01.557Z,16.67
2023-01-17T21:47:30.075Z,18.77
2023-01-17T21:49:58.550Z,19.50
2023-01-17T21:52:26.366Z,19.50
2023-01-17T21:55:12.013Z,20.50
2023-01-17T21:57:59.234Z,21.80
2023-01-17T22:00:27.365Z,22.07
2023-01-17T22:02:56.476Z,21.83
2023-01-17T22:05:25.986Z,22.37
2023-01-17T22:08:12.372Z,22.10
2023-01-17T22:10:45.517Z,23.27
2023-01-17T22:13:16.443Z,22.93
2023-01-17T22:15:44.701Z,22.70
2023-01-17T22:18:14.542Z,22.93
2023-01-17T22:20:43.018Z,21.15
2023-01-17T22:23:11.514Z,23.47
2023-01-17T22:25:39.452Z,23.53
2023-01-17T22:28:07.370Z,23.20
2023-01-17T22:30:37.289Z,23.33
2023-01-17T22:33:05.377Z,24.05
2023-01-17T22:35:33.726Z,23.43
2023-01-17T22:38:01.575Z,22.83
2023-01-17T22:40:30.396Z,23.93
2023-01-17T22:42:59.005Z,22.50
2023-01-17T22:45:27.563Z,23.53
2023-01-17T22:47:56.811Z,24.70
2023-01-17T22:50:24.679Z,24.37
2023-01-17T22:52:52.477Z,24.93
2023-01-17T22:55:21.653Z,26.70
2023-01-17T22:57:49.506Z,23.53
2023-01-17T23:00:17.803Z,25.33
2023-01-17T23:02:45.737Z,25.97
2023-01-17T23:05:14.844Z,26.10
2023-01-17T23:07:46.605Z,26.23
2023-01-17T23:10:35.967Z,26.20
2023-01-17T23:13:04.098Z,25.97
2023-01-17T23:15:49.551Z,24.63
2023-01-17T23:18:35.236Z,25.60
2023-01-17T23:21:07.773Z,24.03
2023-01-17T23:23:35.490Z,23.53
2023-01-17T23:26:03.372Z,24.97
2023-01-17T23:28:30.261Z,24.07
2023-01-17T23:31:03.646Z,26.07
2023-01-17T23:33:31.677Z,23.27
2023-01-17T23:35:59.405Z,23.30
2023-01-17T23:38:29.953Z,25.20
2023-01-17T23:41:20.086Z,24.13
2023-01-17T23:43:51.887Z,23.20
2023-01-17T23:46:19.764Z,21.03
2023-01-17T23:48:47.776Z,20.80
2023-01-17T23:51:15.515Z,20.73
2023-01-17T23:53:44.711Z,20.43
2023-01-17T23:56:16.237Z,20.03
2023-01-17T23:58:44.204Z,19.73
